createdAt,value
2023-01-25T00:01:39.546Z,20.43
2023-01-25T00:04:06.902Z,20.33
2023-01-25T00:06:34.247Z,21.57
2023-01-25T00:09:01.613Z,22.53
2023-01-25T00:11:30.308Z,20.67
2023-01-25T00:13:58.083Z,20.10
2023-01-25T00:16:25.571Z,16.17
2023-01-25T00:18:52.996Z,17.93
2023-01-25T00:21:21.361Z,15.77
2023-01-25T00:23:48.805Z,17.20
2023-01-25T00:26:16.168Z,18.90
2023-01-25T00:28:49.279Z,19.50
2023-01-25T00:31:18.412Z,20.03
2023-01-25T00:33:51.509Z,20.23
2023-01-25T00:36:28.040Z,19.00
2023-01-25T00:38:55.695Z,19.23
2023-01-25T00:41:23.205Z,22.50
2023-01-25T00:43:51.900Z,24.17
2023-01-25T00:46:19.656Z,23.33
2023-01-25T00:48:47.238Z,28.37
2023-01-25T00:51:15.591Z,22.53
2023-01-25T00:53:43.060Z,26.53
2023-01-25T00:56:10.492Z,29.97
2023-01-25T00:58:37.861Z,24.60
2023-01-25T01:01:11.242Z,26.50
2023-01-25T01:03:39.259Z,26.27
2023-01-25T01:06:09.080Z,24.43
2023-01-25T01:08:37.453Z,31.37
2023-01-25T01:11:07.132Z,22.33
2023-01-25T01:13:35.287Z,22.30
2023-01-25T01:16:04.096Z,27.80
2023-01-25T01:18:36.041Z,26.70
2023-01-25T01:21:03.959Z,27.10
2023-01-25T01:23:32.011Z,21.43
2023-01-25T01:26:00.869Z,23.97
2023-01-25T01:28:29.522Z,20.70
2023-01-25T01:31:00.863Z,25.50
2023-01-25T01:33:30.580Z,23.87
2023-01-25T01:35:59.349Z,23.40
2023-01-25T01:38:26.807Z,24.37
2023-01-25T01:40:54.191Z,21.33
2023-01-25T01:43:22.396Z,24.13
2023-01-25T01:45:52.500Z,22.93
2023-01-25T01:48:31.801Z,26.77
2023-01-25T01:51:02.696Z,29.17
2023-01-25T01:53:32.623Z,18.93
2023-01-25T01:56:01.817Z,20.77
2023-01-25T01:58:29.937Z,23.40
2023-01-25T02:00:57.390Z,24.67
2023-01-25T02:03:25.231Z,21.60
2023-01-25T02:05:55.364Z,22.90
2023-01-25T02:08:24.470Z,21.30
2023-01-25T02:10:52.047Z,21.00
2023-01-25T02:13:19.962Z,26.20
2023-01-25T02:15:48.418Z,20.50
2023-01-25T02:18:16.653Z,17.00
2023-01-25T02:20:45.122Z,18.87
2023-01-25T02:23:17.882Z,19.33
2023-01-25T02:25:46.898Z,19.07
2023-01-25T02:28:16.478Z,17.13
2023-01-25T02:30:44.539Z,14.83
2023-01-25T02:33:12.001Z,15.30
2023-01-25T02:35:42.029Z,18.17
2023-01-25T02:38:10.472Z,16.60
2023-01-25T02:40:41.943Z,15.37
2023-01-25T02:43:10.698Z,13.50
2023-01-25T02:45:38.319Z,17.43
2023-01-25T02:48:06.136Z,16.20
2023-01-25T02:50:33.498Z,18.30
2023-01-25T02:53:00.911Z,18.17
2023-01-25T02:55:28.307Z,19.37
2023-01-25T02:57:55.700Z,15.47
2023-01-25T03:00:24.480Z,15.20
2023-01-25T03:02:52.237Z,16.83
2023-01-25T03:05:19.975Z,14.73
2023-01-25T03:07:47.392Z,15.53
2023-01-25T03:10:14.887Z,15.03
2023-01-25T03:12:43.643Z,15.27
2023-01-25T03:15:11.367Z,15.73
2023-01-25T03:17:40.256Z,17.33
2023-01-25T03:20:08.675Z,14.20
2023-01-25T03:22:36.079Z,15.00
2023-01-25T03:25:03.565Z,17.13
2023-01-25T03:27:31.446Z,16.53
2023-01-25T03:30:11.710Z,17.60
2023-01-25T03:32:40.468Z,12.93
2023-01-25T03:35:11.655Z,18.67
2023-01-25T03:37:39.335Z,15.30
2023-01-25T03:40:07.662Z,17.33
2023-01-25T03:42:35.303Z,14.23
2023-01-25T03:45:03.608Z,15.37
2023-01-25T03:47:31.740Z,16.07
2023-01-25T03:50:00.522Z,16.40
2023-01-25T03:52:30.014Z,16.83
2023-01-25T03:54:57.626Z,16.37
2023-01-25T03:57:25.768Z,15.13
2023-01-25T03:59:59.508Z,16.13
2023-01-25T04:02:27.402Z,14.90
2023-01-25T04:04:56.222Z,11.60
2023-01-25T04:07:24.937Z,13.23
2023-01-25T04:09:52.427Z,16.10
2023-01-25T04:12:19.967Z,12.90
2023-01-25T04:14:47.934Z,14.63
2023-01-25T04:17:21.223Z,15.33
2023-01-25T04:19:52.086Z,13.23
2023-01-25T04:22:25.217Z,15.57
2023-01-25T04:24:55.125Z,10.27
2023-01-25T04:27:23.062Z,11.20
2023-01-25T04:29:59.703Z,13.17
2023-01-25T04:32:28.030Z,13.83
2023-01-25T04:34:56.110Z,11.23
2023-01-25T04:37:28.833Z,14.37
2023-01-25T04:39:59.057Z,14.83
2023-01-25T04:42:29.290Z,12.97
2023-01-25T04:44:57.690Z,11.57
2023-01-25T04:47:25.274Z,14.20
2023-01-25T04:49:53.194Z,19.77
2023-01-25T04:52:24.431Z,15.17
2023-01-25T04:54:53.150Z,16.90
2023-01-25T04:57:20.603Z,15.07
2023-01-25T04:59:52.687Z,14.47
2023-01-25T05:02:21.526Z,13.13
2023-01-25T05:04:49.003Z,12.33
2023-01-25T05:07:17.439Z,16.87
2023-01-25T05:09:45.371Z,14.83
2023-01-25T05:12:14.719Z,17.40
2023-01-25T05:14:53.525Z,17.27
2023-01-25T05:17:21.715Z,16.43
2023-01-25T05:19:50.583Z,18.43
2023-01-25T05:22:21.669Z,24.87
2023-01-25T05:24:52.717Z,19.23
2023-01-25T05:27:21.029Z,39.80
2023-01-25T05:29:54.435Z,21.60
2023-01-25T05:32:29.461Z,17.83
2023-01-25T05:34:59.899Z,21.67
2023-01-25T05:37:28.096Z,16.07
2023-01-25T05:40:01.307Z,14.23
2023-01-25T05:42:37.663Z,13.37
2023-01-25T05:45:09.237Z,23.07
2023-01-25T05:47:39.339Z,17.60
2023-01-25T05:50:09.382Z,15.73
2023-01-25T05:52:54.938Z,17.87
2023-01-25T05:55:22.657Z,17.97
2023-01-25T05:57:55.785Z,16.70
2023-01-25T06:00:23.788Z,17.03
2023-01-25T06:02:51.306Z,18.47
2023-01-25T06:05:23.167Z,16.77
2023-01-25T06:07:50.566Z,15.77
2023-01-25T06:10:19.491Z,15.63
2023-01-25T06:12:50.320Z,18.27
2023-01-25T06:15:19.301Z,16.27
2023-01-25T06:17:47.461Z,17.00
2023-01-25T06:20:25.048Z,14.00
2023-01-25T06:23:07.362Z,17.27
2023-01-25T06:25:34.727Z,15.67
2023-01-25T06:28:02.119Z,15.50
2023-01-25T06:30:30.831Z,17.53
2023-01-25T06:32:58.818Z,19.00
2023-01-25T06:35:26.391Z,19.53
2023-01-25T06:37:55.726Z,18.00
2023-01-25T06:40:23.115Z,18.37
2023-01-25T06:42:50.514Z,16.43
2023-01-25T06:45:17.983Z,19.90
2023-01-25T06:47:47.512Z,21.70
2023-01-25T06:50:15.167Z,20.70
2023-01-25T06:52:42.518Z,20.10
2023-01-25T06:55:13.808Z,19.77
2023-01-25T06:57:41.171Z,25.60
2023-01-25T07:00:09.588Z,18.03
2023-01-25T07:02:37.273Z,15.00
2023-01-25T07:05:06.440Z,17.93
2023-01-25T07:07:33.916Z,20.67
2023-01-25T07:10:01.977Z,18.03
2023-01-25T07:12:30.170Z,16.70
2023-01-25T07:14:57.597Z,17.77
2023-01-25T07:17:25.056Z,20.33
2023-01-25T07:19:52.741Z,19.70
2023-01-25T07:22:21.427Z,21.60
2023-01-25T07:24:52.216Z,14.03
2023-01-25T07:27:19.586Z,12.80
2023-01-25T07:29:46.945Z,14.50
2023-01-25T07:32:14.818Z,14.27
2023-01-25T07:34:42.580Z,11.67
2023-01-25T07:37:10.182Z,11.77
2023-01-25T07:39:40.727Z,10.30
2023-01-25T07:42:08.255Z,11.63
2023-01-25T07:44:37.238Z,12.37
2023-01-25T07:47:12.217Z,16.80
2023-01-25T07:49:39.601Z,14.70
2023-01-25T07:52:07.091Z,11.97
2023-01-25T07:54:34.709Z,10.30
2023-01-25T07:57:03.730Z,12.17
2023-01-25T07:59:32.088Z,8.77
2023-01-25T08:01:59.641Z,8.47
2023-01-25T08:04:26.993Z,7.23
2023-01-25T08:06:54.669Z,5.40
2023-01-25T08:09:22.429Z,8.53
2023-01-25T08:11:50.188Z,9.07
2023-01-25T08:14:19.179Z,8.23
2023-01-25T08:16:46.672Z,7.27
2023-01-25T08:19:14.203Z,8.87
2023-01-25T08:21:41.796Z,11.37
2023-01-25T08:24:09.568Z,7.23
2023-01-25T08:26:37.256Z,61.53
2023-01-25T08:29:05.020Z,43.33
2023-01-25T08:31:34.392Z,17.63
2023-01-25T08:34:02.053Z,8.40
2023-01-25T08:36:29.570Z,6.90
2023-01-25T08:38:57.998Z,7.47
2023-01-25T08:41:25.829Z,7.73
2023-01-25T08:43:53.886Z,7.07
2023-01-25T08:46:21.871Z,5.93
2023-01-25T08:48:53.856Z,7.93
2023-01-25T08:51:21.277Z,6.40
2023-01-25T08:53:48.773Z,6.93
2023-01-25T08:56:16.965Z,6.87
2023-01-25T08:58:44.963Z,7.17
2023-01-25T09:01:13.374Z,7.60
2023-01-25T09:03:41.692Z,8.83
2023-01-25T09:06:10.851Z,6.90
2023-01-25T09:08:38.829Z,8.77
2023-01-25T09:11:07.699Z,7.67
2023-01-25T09:13:35.100Z,6.53
2023-01-25T09:16:02.837Z,5.40
2023-01-25T09:18:31.250Z,7.00
2023-01-25T09:20:58.785Z,10.20
2023-01-25T09:23:27.623Z,9.57
2023-01-25T09:25:58.553Z,9.77
2023-01-25T09:28:26.047Z,9.40
2023-01-25T09:31:18.750Z,7.67
2023-01-25T09:34:11.241Z,7.93
2023-01-25T09:36:40.454Z,9.03
2023-01-25T09:39:11.787Z,7.70
2023-01-25T09:42:13.910Z,10.37
2023-01-25T09:44:52.378Z,12.47
2023-01-25T09:47:23.099Z,8.37
2023-01-25T09:50:00.310Z,13.10
2023-01-25T09:52:36.887Z,12.47
2023-01-25T09:55:13.211Z,8.33
2023-01-25T09:57:41.545Z,11.07
2023-01-25T10:00:15.632Z,12.10
2023-01-25T10:02:46.918Z,9.83
2023-01-25T10:05:17.070Z,11.37
2023-01-25T10:07:50.740Z,13.07
2023-01-25T10:10:22.299Z,12.27
2023-01-25T10:12:49.765Z,10.53
2023-01-25T10:15:21.424Z,13.30
2023-01-25T10:17:58.175Z,15.07
2023-01-25T10:20:30.564Z,13.80
2023-01-25T10:23:04.337Z,14.20
2023-01-25T10:25:36.615Z,16.40
2023-01-25T10:28:14.313Z,15.30
2023-01-25T10:30:45.855Z,14.27
2023-01-25T10:33:16.043Z,13.60
2023-01-25T10:35:47.068Z,15.97
2023-01-25T10:38:17.200Z,14.17
2023-01-25T10:40:49.492Z,11.00
2023-01-25T10:43:18.966Z,12.50
2023-01-25T10:45:48.038Z,13.33
2023-01-25T10:48:18.391Z,11.47
2023-01-25T10:50:48.310Z,14.70
2023-01-25T10:53:22.553Z,15.73
2023-01-25T10:55:59.632Z,12.70
2023-01-25T10:58:31.401Z,13.03
2023-01-25T11:00:58.963Z,16.63
2023-01-25T11:03:34.179Z,15.77
2023-01-25T11:06:01.635Z,12.43
2023-01-25T11:08:33.995Z,10.90
2023-01-25T11:11:14.119Z,13.33
2023-01-25T11:13:42.279Z,12.73
2023-01-25T11:16:19.794Z,16.37
2023-01-25T11:18:51.292Z,17.33
2023-01-25T11:21:22.100Z,19.77
2023-01-25T11:23:58.976Z,20.33
2023-01-25T11:26:28.004Z,16.67
2023-01-25T11:29:07.489Z,16.07
2023-01-25T11:31:34.986Z,16.47
2023-01-25T11:34:02.423Z,16.00
2023-01-25T11:36:34.275Z,17.50
2023-01-25T11:39:11.234Z,27.30
2023-01-25T11:41:43.942Z,23.90
2023-01-25T11:44:26.872Z,21.30
2023-01-25T11:47:00.443Z,18.47
2023-01-25T11:49:34.367Z,33.70
2023-01-25T11:52:07.034Z,40.07
2023-01-25T11:54:43.276Z,26.20
2023-01-25T11:57:21.134Z,17.90
2023-01-25T11:59:56.229Z,24.77
2023-01-25T12:02:36.538Z,20.97
2023-01-25T12:05:21.620Z,22.97
2023-01-25T12:07:51.045Z,23.00
2023-01-25T12:10:23.684Z,37.37
2023-01-25T12:12:56.842Z,34.00
2023-01-25T12:15:37.583Z,22.53
2023-01-25T12:18:22.743Z,17.40
2023-01-25T12:21:01.195Z,19.67
2023-01-25T12:23:33.459Z,17.97
2023-01-25T12:26:06.565Z,26.33
2023-01-25T12:28:38.846Z,21.50
2023-01-25T12:31:10.428Z,19.57
2023-01-25T12:33:40.961Z,17.33
2023-01-25T12:36:10.768Z,17.80
2023-01-25T12:38:40.798Z,15.83
2023-01-25T12:41:15.123Z,16.70
2023-01-25T12:43:46.830Z,20.07
2023-01-25T12:46:16.829Z,17.77
2023-01-25T12:48:47.467Z,18.50
2023-01-25T12:51:15.454Z,20.80
2023-01-25T12:53:44.920Z,18.00
2023-01-25T12:56:18.706Z,17.80
2023-01-25T12:58:50.908Z,15.47
2023-01-25T13:01:23.980Z,13.33
2023-01-25T13:03:58.740Z,16.77
2023-01-25T13:06:32.785Z,16.20
2023-01-25T13:09:05.587Z,13.63
2023-01-25T13:11:34.414Z,15.30
2023-01-25T13:14:25.928Z,16.87
2023-01-25T13:17:09.430Z,15.80
2023-01-25T13:19:42.654Z,32.40
2023-01-25T13:22:11.074Z,100.30
2023-01-25T13:24:53.348Z,24.33
2023-01-25T13:27:25.855Z,36.10
2023-01-25T13:30:00.419Z,39.17
2023-01-25T13:32:46.690Z,43.80
2023-01-25T13:35:27.712Z,18.90
2023-01-25T13:37:59.093Z,22.63
2023-01-25T13:40:31.711Z,33.97
2023-01-25T13:42:59.966Z,24.70
2023-01-25T13:45:27.553Z,18.20
2023-01-25T13:48:06.597Z,21.37
2023-01-25T13:50:38.478Z,25.33
2023-01-25T13:53:07.196Z,120.47
2023-01-25T13:55:41.689Z,78.57
2023-01-25T13:58:09.933Z,69.77
2023-01-25T14:00:37.380Z,48.97
2023-01-25T14:03:06.195Z,35.57
2023-01-25T14:05:33.780Z,21.80
2023-01-25T14:08:02.548Z,27.17
2023-01-25T14:10:30.037Z,54.97
2023-01-25T14:12:59.507Z,83.00
2023-01-25T14:15:27.728Z,25.53
2023-01-25T14:18:05.370Z,54.77
2023-01-25T14:20:32.892Z,29.90
2023-01-25T14:23:01.702Z,21.87
2023-01-25T14:25:29.121Z,28.43
2023-01-25T14:27:57.218Z,108.57
2023-01-25T14:30:25.795Z,166.60
2023-01-25T14:32:54.724Z,57.77
2023-01-25T14:35:53.900Z,44.33
2023-01-25T14:38:28.915Z,60.20
2023-01-25T14:40:57.762Z,50.73
2023-01-25T14:43:26.045Z,31.60
2023-01-25T14:45:53.541Z,41.47
2023-01-25T14:48:41.353Z,30.03
2023-01-25T14:51:17.962Z,36.97
2023-01-25T14:53:48.245Z,33.37
2023-01-25T14:56:43.144Z,35.80
2023-01-25T14:59:21.791Z,31.17
2023-01-25T15:01:50.559Z,20.37
2023-01-25T15:04:18.039Z,18.10
2023-01-25T15:06:46.279Z,19.57
2023-01-25T15:09:28.582Z,24.47
2023-01-25T15:12:01.159Z,30.10
2023-01-25T15:14:28.590Z,29.67
2023-01-25T15:16:56.878Z,42.50
2023-01-25T15:19:25.779Z,44.47
2023-01-25T15:21:54.955Z,37.53
2023-01-25T15:24:23.500Z,26.50
2023-01-25T15:26:52.199Z,32.53
2023-01-25T15:29:21.930Z,27.20
2023-01-25T15:31:50.184Z,28.30
2023-01-25T15:34:19.075Z,29.90
2023-01-25T15:36:46.531Z,41.20
2023-01-25T15:39:15.284Z,32.43
2023-01-25T15:41:42.738Z,24.50
2023-01-25T15:44:10.537Z,27.17
2023-01-25T15:46:40.875Z,27.20
2023-01-25T15:49:09.411Z,29.20
2023-01-25T15:51:36.871Z,29.90
2023-01-25T15:54:04.696Z,33.60
2023-01-25T15:56:33.534Z,25.97
2023-01-25T15:59:01.620Z,30.53
2023-01-25T16:01:30.254Z,24.63
2023-01-25T16:04:00.051Z,20.70
2023-01-25T16:06:36.659Z,25.47
2023-01-25T16:09:12.333Z,25.57
2023-01-25T16:11:39.936Z,28.33
2023-01-25T16:14:07.351Z,24.03
2023-01-25T16:16:35.347Z,22.67
2023-01-25T16:19:04.026Z,22.07
2023-01-25T16:21:31.406Z,22.50
2023-01-25T16:23:58.866Z,24.60
2023-01-25T16:26:26.952Z,27.43
2023-01-25T16:28:54.394Z,27.77
2023-01-25T16:31:32.343Z,30.60
2023-01-25T16:34:00.868Z,44.40
2023-01-25T16:36:30.228Z,40.07
2023-01-25T16:39:00.783Z,33.77
2023-01-25T16:41:28.257Z,28.77
2023-01-25T16:43:55.709Z,27.80
2023-01-25T16:46:23.840Z,29.07
2023-01-25T16:48:52.300Z,34.50
2023-01-25T16:51:20.940Z,43.30
2023-01-25T16:53:50.279Z,38.50
2023-01-25T16:56:18.577Z,37.63
2023-01-25T16:58:46.334Z,34.57
2023-01-25T17:01:14.860Z,35.50
2023-01-25T17:03:42.332Z,34.00
2023-01-25T17:06:17.193Z,30.87
2023-01-25T17:08:44.705Z,31.37
2023-01-25T17:11:13.499Z,33.63
2023-01-25T17:13:41.057Z,50.00
2023-01-25T17:16:08.799Z,31.13
2023-01-25T17:18:36.228Z,42.03
2023-01-25T17:21:04.809Z,37.33
2023-01-25T17:23:32.755Z,38.17
2023-01-25T17:26:00.194Z,75.57
2023-01-25T17:28:28.999Z,53.00
2023-01-25T17:30:56.485Z,34.13
2023-01-25T17:33:23.924Z,28.97
2023-01-25T17:35:52.530Z,31.63
2023-01-25T17:38:20.176Z,31.23
2023-01-25T17:40:47.601Z,32.17
2023-01-25T17:43:14.950Z,27.60
2023-01-25T17:45:43.631Z,28.50
2023-01-25T17:48:10.987Z,31.03
2023-01-25T17:50:38.443Z,39.33
2023-01-25T17:53:06.380Z,37.13
2023-01-25T17:55:35.298Z,40.07
2023-01-25T17:58:02.678Z,37.40
2023-01-25T18:00:30.530Z,33.47
2023-01-25T18:02:59.349Z,33.13
2023-01-25T18:05:27.682Z,29.00
2023-01-25T18:07:55.030Z,34.70
2023-01-25T18:10:22.508Z,33.63
2023-01-25T18:13:03.646Z,29.57
2023-01-25T18:15:32.135Z,36.30
2023-01-25T18:18:01.630Z,33.93
2023-01-25T18:20:31.388Z,36.50
2023-01-25T18:22:58.920Z,37.63
2023-01-25T18:25:32.105Z,31.83
2023-01-25T18:27:59.715Z,29.80
2023-01-25T18:30:31.494Z,33.40
2023-01-25T18:32:59.355Z,36.40
2023-01-25T18:35:28.766Z,32.43
2023-01-25T18:37:56.317Z,26.27
2023-01-25T18:40:23.814Z,27.67
2023-01-25T18:42:52.681Z,23.80
2023-01-25T18:45:20.130Z,30.57
2023-01-25T18:47:47.794Z,28.10
2023-01-25T18:50:16.298Z,28.40
2023-01-25T18:52:45.389Z,29.77
2023-01-25T18:55:12.968Z,30.80
2023-01-25T18:57:40.703Z,26.97
2023-01-25T19:00:10.936Z,28.53
2023-01-25T19:02:38.783Z,26.47
2023-01-25T19:05:06.968Z,28.87
2023-01-25T19:07:34.340Z,28.57
2023-01-25T19:10:03.491Z,36.90
2023-01-25T19:12:30.911Z,55.67
2023-01-25T19:14:59.588Z,54.73
2023-01-25T19:17:27.536Z,97.70
2023-01-25T19:19:55.006Z,48.37
2023-01-25T19:22:22.431Z,33.50
2023-01-25T19:24:49.916Z,30.83
2023-01-25T19:27:18.859Z,33.23
2023-01-25T19:29:46.497Z,40.20
2023-01-25T19:32:14.085Z,40.27
2023-01-25T19:34:41.448Z,39.97
2023-01-25T19:37:09.190Z,38.60
2023-01-25T19:39:37.228Z,43.10
2023-01-25T19:42:06.671Z,41.37
2023-01-25T19:44:35.389Z,53.20
2023-01-25T19:47:03.113Z,48.23
2023-01-25T19:49:30.509Z,43.47
2023-01-25T19:51:58.679Z,36.00
2023-01-25T19:54:26.173Z,35.37
2023-01-25T19:56:53.638Z,34.80
2023-01-25T19:59:21.785Z,33.70
2023-01-25T20:01:50.565Z,37.77
2023-01-25T20:04:20.480Z,40.53
2023-01-25T20:06:48.180Z,31.93
2023-01-25T20:09:17.198Z,35.70
2023-01-25T20:11:46.311Z,40.20
2023-01-25T20:14:13.952Z,33.27
2023-01-25T20:16:41.601Z,34.77
2023-01-25T20:19:11.513Z,37.97
2023-01-25T20:21:39.671Z,36.27
2023-01-25T20:24:08.494Z,36.77
2023-01-25T20:26:37.387Z,31.90
2023-01-25T20:29:05.272Z,39.50
2023-01-25T20:31:33.798Z,32.30
2023-01-25T20:34:02.356Z,33.20
2023-01-25T20:36:32.761Z,29.03
2023-01-25T20:39:00.433Z,34.63
2023-01-25T20:41:28.051Z,29.70
2023-01-25T20:43:57.964Z,32.80
2023-01-25T20:46:25.811Z,27.73
2023-01-25T20:48:53.647Z,27.17
2023-01-25T20:51:21.568Z,28.17
2023-01-25T20:53:50.992Z,32.13
2023-01-25T20:56:19.597Z,30.27
2023-01-25T20:58:50.526Z,32.90
2023-01-25T21:01:19.534Z,30.13
2023-01-25T21:03:47.468Z,34.60
2023-01-25T21:06:14.973Z,46.70
2023-01-25T21:08:42.649Z,52.13
2023-01-25T21:11:11.445Z,47.97
2023-01-25T21:13:38.956Z,28.03
2023-01-25T21:16:07.433Z,26.40
2023-01-25T21:18:35.419Z,27.23
2023-01-25T21:21:04.238Z,25.70
2023-01-25T21:23:33.399Z,24.17
2023-01-25T21:26:01.292Z,20.27
2023-01-25T21:28:30.387Z,20.27
2023-01-25T21:30:58.093Z,21.20
2023-01-25T21:33:25.823Z,24.30
2023-01-25T21:35:54.891Z,21.50
2023-01-25T21:38:22.329Z,22.70
2023-01-25T21:40:49.942Z,47.30
2023-01-25T21:43:18.016Z,24.17
2023-01-25T21:46:04.252Z,32.40
2023-01-25T21:48:49.406Z,23.60
2023-01-25T21:51:34.572Z,17.90
2023-01-25T21:54:01.913Z,17.10
2023-01-25T21:56:29.629Z,23.80
2023-01-25T21:58:57.286Z,18.10
2023-01-25T22:01:26.094Z,16.60
2023-01-25T22:03:54.306Z,18.50
2023-01-25T22:06:21.829Z,17.77
2023-01-25T22:08:49.301Z,19.77
2023-01-25T22:11:16.732Z,18.33
2023-01-25T22:13:44.082Z,23.57
2023-01-25T22:16:12.135Z,18.50
2023-01-25T22:18:42.069Z,22.17
2023-01-25T22:21:14.780Z,18.87
2023-01-25T22:23:42.153Z,19.07
2023-01-25T22:26:10.671Z,18.63
2023-01-25T22:28:39.900Z,18.93
2023-01-25T22:31:07.350Z,22.37
2023-01-25T22:33:34.765Z,22.77
2023-01-25T22:36:03.537Z,22.33
2023-01-25T22:38:31.022Z,22.40
2023-01-25T22:41:03.679Z,23.83
2023-01-25T22:43:31.030Z,25.40
2023-01-25T22:45:58.534Z,25.03
2023-01-25T22:48:25.983Z,21.33
2023-01-25T22:50:53.416Z,21.20
2023-01-25T22:53:22.137Z,20.07
2023-01-25T22:55:49.511Z,18.73
2023-01-25T22:58:16.849Z,15.90
2023-01-25T23:00:44.214Z,17.43
2023-01-25T23:03:11.868Z,18.23
2023-01-25T23:05:39.562Z,14.87
2023-01-25T23:08:06.908Z,14.23
2023-01-25T23:10:35.565Z,15.80
2023-01-25T23:13:02.917Z,16.77
2023-01-25T23:15:30.300Z,17.53
2023-01-25T23:18:23.831Z,18.50
2023-01-25T23:20:51.255Z,18.07
2023-01-25T23:23:18.591Z,17.23
2023-01-25T23:25:48.264Z,17.77
2023-01-25T23:28:15.611Z,19.83
2023-01-25T23:30:42.997Z,19.13
2023-01-25T23:33:10.354Z,14.73
2023-01-25T23:35:37.912Z,16.67
2023-01-25T23:38:15.981Z,18.40
2023-01-25T23:40:43.450Z,15.87
2023-01-25T23:43:12.119Z,18.17
2023-01-25T23:45:39.466Z,16.40
2023-01-25T23:48:06.821Z,15.40
2023-01-25T23:50:34.238Z,16.77
2023-01-25T23:53:01.634Z,15.53
2023-01-25T23:55:29.016Z,17.10
2023-01-25T23:57:56.433Z,15.63
